createdAt,value
2023-05-02T00:01:15.847Z,100.00
2023-05-02T00:03:45.758Z,100.00
2023-05-02T00:06:16.040Z,100.00
2023-05-02T00:08:46.061Z,100.00
2023-05-02T00:11:14.580Z,100.00
2023-05-02T00:13:44.204Z,100.00
2023-05-02T00:16:11.506Z,100.00
2023-05-02T00:18:39.909Z,100.00
2023-05-02T00:21:08.659Z,100.00
2023-05-02T00:23:36.952Z,100.00
2023-05-02T00:26:10.509Z,100.00
2023-05-02T00:28:40.498Z,100.00
2023-05-02T00:31:08.577Z,100.00
2023-05-02T00:33:36.875Z,100.00
2023-05-02T00:36:05.591Z,100.00
2023-05-02T00:38:33.822Z,100.00
2023-05-02T00:41:02.170Z,100.00
2023-05-02T00:43:31.658Z,100.00
2023-05-02T00:46:01.032Z,100.00
2023-05-02T00:48:31.247Z,100.00
2023-05-02T00:51:05.630Z,100.00
2023-05-02T00:53:35.846Z,100.00
2023-05-02T00:56:06.572Z,100.00
2023-05-02T00:58:40.994Z,100.00
2023-05-02T01:02:00.816Z,100.00
2023-05-02T01:05:11.379Z,100.00
2023-05-02T01:08:10.951Z,100.00
2023-05-02T01:11:35.401Z,100.00
2023-05-02T01:14:12.470Z,100.00
2023-05-02T01:16:48.685Z,100.00
2023-05-02T01:19:53.004Z,100.00
2023-05-02T01:22:30.545Z,100.00
2023-05-02T01:26:07.677Z,100.00
2023-05-02T01:29:03.549Z,100.00
2023-05-02T01:31:43.720Z,100.00
2023-05-02T01:34:12.897Z,100.00
2023-05-02T01:36:50.564Z,100.00
2023-05-02T01:39:26.988Z,100.00
2023-05-02T01:42:03.938Z,100.00
2023-05-02T01:44:38.427Z,100.00
2023-05-02T01:47:11.447Z,100.00
2023-05-02T01:49:45.168Z,100.00
2023-05-02T01:52:21.905Z,100.00
2023-05-02T01:54:57.930Z,100.00
2023-05-02T01:57:28.290Z,100.00
2023-05-02T02:00:04.193Z,100.00
2023-05-02T02:02:36.988Z,100.00
2023-05-02T02:05:12.322Z,100.00
2023-05-02T02:07:44.802Z,100.00
2023-05-02T02:10:15.391Z,100.00
2023-05-02T02:13:19.817Z,100.00
2023-05-02T02:15:59.803Z,99.62
2023-05-02T02:18:37.857Z,99.66
2023-05-02T02:21:13.531Z,99.57
2023-05-02T02:23:51.553Z,100.00
2023-05-02T02:26:23.899Z,100.00
2023-05-02T02:28:55.205Z,100.00
2023-05-02T02:31:40.030Z,100.00
2023-05-02T02:34:11.317Z,100.00
2023-05-02T02:37:01.880Z,100.00
2023-05-02T02:40:16.727Z,100.00
2023-05-02T02:43:00.423Z,100.00
2023-05-02T02:46:23.032Z,100.00
2023-05-02T02:49:27.293Z,100.00
2023-05-02T02:52:38.324Z,100.00
2023-05-02T02:55:43.082Z,100.00
2023-05-02T02:59:03.514Z,100.00
2023-05-02T03:01:42.040Z,100.00
2023-05-02T03:04:16.795Z,100.00
2023-05-02T03:06:46.908Z,100.00
2023-05-02T03:09:18.905Z,100.00
2023-05-02T03:11:49.045Z,100.00
2023-05-02T03:14:19.173Z,100.00
2023-05-02T03:16:51.969Z,100.00
2023-05-02T03:19:22.098Z,100.00
2023-05-02T03:21:52.190Z,100.00
2023-05-02T03:24:22.442Z,100.00
2023-05-02T03:26:59.539Z,100.00
2023-05-02T03:29:29.661Z,100.00
2023-05-02T03:31:59.890Z,100.00
2023-05-02T03:34:30.167Z,100.00
2023-05-02T03:37:00.359Z,100.00
2023-05-02T03:39:30.476Z,100.00
2023-05-02T03:42:01.884Z,100.00
2023-05-02T03:44:32.036Z,100.00
2023-05-02T03:47:03.293Z,100.00
2023-05-02T03:49:37.030Z,100.00
2023-05-02T03:52:07.265Z,100.00
2023-05-02T03:54:38.020Z,100.00
2023-05-02T03:57:08.989Z,100.00
2023-05-02T03:59:41.839Z,100.00
2023-05-02T04:02:12.572Z,100.00
2023-05-02T04:04:43.717Z,100.00
2023-05-02T04:07:18.549Z,100.00
2023-05-02T04:09:48.657Z,100.00
2023-05-02T04:12:18.914Z,100.00
2023-05-02T04:14:49.054Z,100.00
2023-05-02T04:17:19.200Z,100.00
2023-05-02T04:19:49.528Z,100.00
2023-05-02T04:22:19.654Z,100.00
2023-05-02T04:24:49.790Z,100.00
2023-05-02T04:27:20.002Z,100.00
2023-05-02T04:29:52.681Z,100.00
2023-05-02T04:32:22.986Z,100.00
2023-05-02T04:34:53.176Z,100.00
2023-05-02T04:37:23.567Z,100.00
2023-05-02T04:39:53.686Z,100.00
2023-05-02T04:42:22.121Z,100.00
2023-05-02T04:44:50.848Z,100.00
2023-05-02T04:47:18.917Z,100.00
2023-05-02T04:49:47.385Z,100.00
2023-05-02T04:52:15.845Z,100.00
2023-05-02T04:54:44.439Z,100.00
2023-05-02T04:57:12.642Z,100.00
2023-05-02T04:59:41.055Z,100.00
2023-05-02T05:02:12.902Z,100.00
2023-05-02T05:04:40.967Z,100.00
2023-05-02T05:07:09.344Z,100.00
2023-05-02T05:09:37.767Z,100.00
2023-05-02T05:12:10.550Z,100.00
2023-05-02T05:14:41.486Z,100.00
2023-05-02T05:17:11.646Z,100.00
2023-05-02T05:19:41.829Z,100.00
2023-05-02T05:22:11.973Z,100.00
2023-05-02T05:24:42.059Z,100.00
2023-05-02T05:27:12.492Z,100.00
2023-05-02T05:29:42.623Z,100.00
2023-05-02T05:32:13.066Z,100.00
2023-05-02T05:34:43.299Z,99.65
2023-05-02T05:37:13.549Z,99.83
2023-05-02T05:39:43.659Z,99.32
2023-05-02T05:42:18.407Z,96.42
2023-05-02T05:44:48.540Z,96.53
2023-05-02T05:47:22.438Z,99.53
2023-05-02T05:49:57.200Z,100.00
2023-05-02T05:52:27.799Z,100.00
2023-05-02T05:54:57.967Z,100.00
2023-05-02T05:57:28.063Z,100.00
2023-05-02T05:59:58.259Z,99.31
2023-05-02T06:02:28.647Z,99.96
2023-05-02T06:04:58.985Z,100.00
2023-05-02T06:07:29.354Z,99.03
2023-05-02T06:09:59.589Z,98.68
2023-05-02T06:12:31.291Z,97.47
2023-05-02T06:15:01.976Z,92.45
2023-05-02T06:17:32.611Z,91.73
2023-05-02T06:20:03.031Z,92.87
2023-05-02T06:22:33.367Z,90.34
2023-05-02T06:25:05.363Z,87.90
2023-05-02T06:27:36.084Z,86.72
2023-05-02T06:30:07.740Z,87.49
2023-05-02T06:32:35.350Z,86.78
2023-05-02T06:35:05.735Z,88.71
2023-05-02T06:37:36.091Z,87.74
2023-05-02T06:40:06.670Z,88.06
2023-05-02T06:42:36.163Z,86.30
2023-05-02T06:45:07.164Z,87.27
2023-05-02T06:47:36.501Z,87.30
2023-05-02T06:50:07.675Z,88.13
2023-05-02T06:52:36.353Z,85.83
2023-05-02T06:55:07.070Z,85.62
2023-05-02T06:57:36.781Z,83.21
2023-05-02T07:00:07.550Z,85.06
2023-05-02T07:02:36.836Z,86.22
2023-05-02T07:05:07.222Z,83.52
2023-05-02T07:07:37.133Z,86.63
2023-05-02T07:10:07.660Z,86.34
2023-05-02T07:12:37.635Z,86.79
2023-05-02T07:15:08.807Z,88.99
2023-05-02T07:17:37.320Z,92.43
2023-05-02T07:20:09.307Z,94.47
2023-05-02T07:22:37.795Z,95.02
2023-05-02T07:25:07.958Z,97.62
2023-05-02T07:27:37.567Z,98.55
2023-05-02T07:30:08.629Z,98.04
2023-05-02T07:32:38.716Z,97.19
2023-05-02T07:35:09.711Z,98.78
2023-05-02T07:37:39.054Z,93.44
2023-05-02T07:40:08.170Z,93.51
2023-05-02T07:42:37.456Z,93.42
2023-05-02T07:45:09.098Z,92.60
2023-05-02T07:47:38.103Z,91.88
2023-05-02T07:50:09.491Z,93.44
2023-05-02T07:52:38.689Z,94.02
2023-05-02T07:55:09.214Z,94.62
2023-05-02T07:57:38.967Z,94.19
2023-05-02T08:00:10.404Z,95.18
2023-05-02T08:02:39.663Z,95.58
2023-05-02T08:05:10.130Z,96.38
2023-05-02T08:07:38.068Z,97.70
2023-05-02T08:10:08.827Z,97.96
2023-05-02T08:12:42.717Z,97.79
2023-05-02T08:15:14.015Z,98.42
2023-05-02T08:17:42.005Z,98.14
2023-05-02T08:20:12.640Z,99.42
2023-05-02T08:22:42.485Z,100.00
2023-05-02T08:25:12.210Z,100.00
2023-05-02T08:27:41.879Z,99.71
2023-05-02T08:30:13.207Z,99.57
2023-05-02T08:32:42.525Z,94.63
2023-05-02T08:35:12.586Z,93.38
2023-05-02T08:37:42.870Z,89.83
2023-05-02T08:40:15.219Z,90.76
2023-05-02T08:42:45.500Z,90.57
2023-05-02T08:45:16.858Z,87.55
2023-05-02T08:47:47.946Z,86.99
2023-05-02T08:50:20.011Z,85.71
2023-05-02T08:52:53.472Z,85.63
2023-05-02T08:55:27.923Z,86.51
2023-05-02T08:57:58.855Z,86.22
2023-05-02T09:00:29.320Z,86.51
2023-05-02T09:03:32.828Z,88.78
2023-05-02T09:06:22.883Z,90.77
2023-05-02T09:08:53.622Z,89.01
2023-05-02T09:11:23.706Z,91.37
2023-05-02T09:13:53.864Z,92.67
2023-05-02T09:16:27.457Z,94.20
2023-05-02T09:18:59.490Z,93.36
2023-05-02T09:21:41.441Z,93.06
2023-05-02T09:24:23.082Z,89.81
2023-05-02T09:27:08.256Z,87.23
2023-05-02T09:29:39.167Z,85.42
2023-05-02T09:32:09.794Z,84.81
2023-05-02T09:34:39.954Z,85.80
2023-05-02T09:37:12.760Z,85.79
2023-05-02T09:40:10.306Z,88.77
2023-05-02T09:42:40.442Z,90.94
2023-05-02T09:45:25.532Z,92.32
2023-05-02T09:48:02.952Z,90.73
2023-05-02T09:50:38.522Z,89.80
2023-05-02T09:53:11.427Z,91.40
2023-05-02T09:55:41.579Z,94.20
2023-05-02T09:58:25.784Z,93.07
2023-05-02T10:00:56.088Z,93.17
2023-05-02T10:03:29.872Z,94.14
2023-05-02T10:06:01.490Z,96.16
2023-05-02T10:08:34.601Z,100.00
2023-05-02T10:11:10.103Z,100.00
2023-05-02T10:13:43.923Z,100.00
2023-05-02T10:16:29.275Z,100.00
2023-05-02T10:19:10.650Z,100.00
2023-05-02T10:21:44.315Z,100.00
2023-05-02T10:24:17.213Z,99.35
2023-05-02T10:26:50.083Z,95.28
2023-05-02T10:29:20.269Z,93.62
2023-05-02T10:31:52.121Z,92.74
2023-05-02T10:34:24.024Z,93.66
2023-05-02T10:36:56.761Z,93.10
2023-05-02T10:39:29.491Z,94.24
2023-05-02T10:42:05.296Z,97.30
2023-05-02T10:44:40.650Z,100.00
2023-05-02T10:47:27.664Z,100.00
2023-05-02T10:50:04.983Z,100.00
2023-05-02T10:52:41.347Z,100.00
2023-05-02T10:55:23.842Z,100.00
2023-05-02T10:58:02.615Z,100.00
2023-05-02T11:00:35.017Z,100.00
2023-05-02T11:03:05.462Z,100.00
2023-05-02T11:06:09.980Z,100.00
2023-05-02T11:08:41.912Z,100.00
2023-05-02T11:11:43.798Z,100.00
2023-05-02T11:14:38.620Z,100.00
2023-05-02T11:17:11.826Z,100.00
2023-05-02T11:19:44.885Z,100.00
2023-05-02T11:22:21.104Z,100.00
2023-05-02T11:24:51.894Z,100.00
2023-05-02T11:27:35.831Z,100.00
2023-05-02T11:30:10.033Z,100.00
2023-05-02T11:32:49.825Z,100.00
2023-05-02T11:35:28.288Z,100.00
2023-05-02T11:38:10.138Z,100.00
2023-05-02T11:40:41.337Z,100.00
2023-05-02T11:43:18.668Z,100.00
2023-05-02T11:45:49.696Z,100.00
2023-05-02T11:48:22.839Z,100.00
2023-05-02T11:51:05.575Z,100.00
2023-05-02T11:53:41.776Z,100.00
2023-05-02T11:56:12.135Z,99.38
2023-05-02T11:58:44.211Z,99.50
2023-05-02T12:01:17.516Z,100.00
2023-05-02T12:03:49.682Z,93.53
2023-05-02T12:06:20.469Z,90.98
2023-05-02T12:08:53.635Z,90.35
2023-05-02T12:11:25.005Z,90.15
2023-05-02T12:13:55.645Z,92.16
2023-05-02T12:16:26.110Z,93.53
2023-05-02T12:18:59.687Z,92.60
2023-05-02T12:21:32.943Z,91.19
2023-05-02T12:24:04.210Z,91.74
2023-05-02T12:26:34.485Z,88.75
2023-05-02T12:29:07.832Z,86.11
2023-05-02T12:31:38.119Z,86.12
2023-05-02T12:34:08.292Z,86.19
2023-05-02T12:36:45.614Z,82.24
2023-05-02T12:39:16.510Z,81.21
2023-05-02T12:41:47.485Z,79.44
2023-05-02T12:44:36.528Z,79.32
2023-05-02T12:47:06.308Z,79.69
2023-05-02T12:49:52.785Z,78.44
2023-05-02T12:52:59.395Z,78.21
2023-05-02T12:55:32.431Z,74.94
2023-05-02T12:58:13.636Z,76.51
2023-05-02T13:00:45.744Z,78.90
2023-05-02T13:03:18.000Z,78.94
2023-05-02T13:05:48.159Z,79.10
2023-05-02T13:08:18.293Z,77.02
2023-05-02T13:10:48.377Z,74.50
2023-05-02T13:13:18.508Z,71.89
2023-05-02T13:15:48.881Z,70.15
2023-05-02T13:18:19.128Z,73.76
2023-05-02T13:20:49.402Z,72.32
2023-05-02T13:23:19.645Z,74.30
2023-05-02T13:25:49.800Z,75.09
2023-05-02T13:28:19.910Z,74.91
2023-05-02T13:30:50.062Z,73.47
2023-05-02T13:33:20.182Z,73.82
2023-05-02T13:35:50.281Z,70.62
2023-05-02T13:38:20.551Z,70.79
2023-05-02T13:40:50.917Z,73.16
2023-05-02T13:43:21.249Z,74.04
2023-05-02T13:45:52.549Z,71.13
2023-05-02T13:48:22.960Z,70.75
2023-05-02T13:50:53.110Z,70.69
2023-05-02T13:53:23.234Z,69.98
2023-05-02T13:55:53.347Z,67.20
2023-05-02T13:58:23.535Z,66.90
2023-05-02T14:00:53.666Z,68.85
2023-05-02T14:03:23.969Z,67.07
2023-05-02T14:05:54.126Z,68.08
2023-05-02T14:08:24.295Z,67.46
2023-05-02T14:10:54.396Z,65.75
2023-05-02T14:13:24.883Z,68.06
2023-05-02T14:15:55.498Z,64.47
2023-05-02T14:18:23.498Z,65.08
2023-05-02T14:20:51.943Z,65.49
2023-05-02T14:23:20.909Z,59.61
2023-05-02T14:25:48.736Z,58.63
2023-05-02T14:28:17.110Z,58.44
2023-05-02T14:30:45.699Z,60.37
2023-05-02T14:33:14.232Z,64.23
2023-05-02T14:35:42.914Z,64.59
2023-05-02T14:38:10.878Z,64.12
2023-05-02T14:40:39.315Z,65.95
2023-05-02T14:43:08.522Z,65.89
2023-05-02T14:45:36.111Z,67.22
2023-05-02T14:48:04.737Z,64.67
2023-05-02T14:50:32.953Z,63.35
2023-05-02T14:53:01.386Z,62.35
2023-05-02T14:55:29.891Z,63.45
2023-05-02T14:57:58.723Z,62.72
2023-05-02T15:00:26.667Z,64.44
2023-05-02T15:02:55.274Z,65.43
2023-05-02T15:05:23.544Z,66.91
2023-05-02T15:07:51.965Z,66.34
2023-05-02T15:10:20.510Z,67.83
2023-05-02T15:12:51.040Z,68.76
2023-05-02T15:15:25.273Z,69.75
2023-05-02T15:17:55.551Z,69.77
2023-05-02T15:20:25.958Z,70.79
2023-05-02T15:22:56.169Z,69.48
2023-05-02T15:25:26.395Z,71.07
2023-05-02T15:27:56.722Z,68.78
2023-05-02T15:30:27.163Z,65.79
2023-05-02T15:32:57.372Z,63.60
2023-05-02T15:35:27.573Z,64.89
2023-05-02T15:37:58.010Z,65.17
2023-05-02T15:40:28.619Z,64.89
2023-05-02T15:42:58.866Z,64.07
2023-05-02T15:45:29.020Z,63.71
2023-05-02T15:47:59.169Z,62.01
2023-05-02T15:50:29.303Z,60.23
2023-05-02T15:52:59.464Z,58.15
2023-05-02T15:55:30.763Z,55.92
2023-05-02T15:58:00.979Z,56.12
2023-05-02T16:00:31.293Z,55.28
2023-05-02T16:03:03.927Z,55.74
2023-05-02T16:05:34.458Z,55.66
2023-05-02T16:08:06.201Z,55.47
2023-05-02T16:10:39.270Z,55.11
2023-05-02T16:13:10.205Z,55.74
2023-05-02T16:15:40.517Z,57.21
2023-05-02T16:18:10.831Z,59.17
2023-05-02T16:20:42.263Z,60.94
2023-05-02T16:23:12.392Z,61.74
2023-05-02T16:25:42.525Z,60.77
2023-05-02T16:28:12.705Z,62.16
2023-05-02T16:30:42.805Z,62.83
2023-05-02T16:33:13.926Z,62.08
2023-05-02T16:35:44.052Z,62.24
2023-05-02T16:38:14.281Z,63.64
2023-05-02T16:40:44.488Z,62.28
2023-05-02T16:43:14.645Z,61.55
2023-05-02T16:45:47.112Z,62.48
2023-05-02T16:48:17.315Z,62.13
2023-05-02T16:50:47.450Z,63.10
2023-05-02T16:53:17.568Z,63.70
2023-05-02T16:55:47.696Z,63.47
2023-05-02T16:58:17.824Z,62.89
2023-05-02T17:00:48.084Z,63.80
2023-05-02T17:03:18.367Z,64.01
2023-05-02T17:05:48.553Z,65.54
2023-05-02T17:08:18.661Z,65.09
2023-05-02T17:10:51.560Z,64.90
2023-05-02T17:13:21.879Z,65.97
2023-05-02T17:15:53.786Z,65.42
2023-05-02T17:18:24.485Z,66.88
2023-05-02T17:20:55.360Z,67.28
2023-05-02T17:23:28.726Z,65.93
2023-05-02T17:25:58.967Z,66.64
2023-05-02T17:28:29.182Z,68.05
2023-05-02T17:30:59.576Z,66.53
2023-05-02T17:33:29.905Z,66.60
2023-05-02T17:36:00.067Z,67.48
2023-05-02T17:38:30.509Z,67.29
2023-05-02T17:41:00.623Z,68.26
2023-05-02T17:43:30.794Z,67.89
2023-05-02T17:46:10.242Z,68.75
2023-05-02T17:48:44.503Z,68.90
2023-05-02T17:51:14.653Z,70.09
2023-05-02T17:53:44.305Z,71.89
2023-05-02T17:56:16.409Z,70.01
2023-05-02T17:58:46.276Z,70.67
2023-05-02T18:01:17.775Z,70.96
2023-05-02T18:03:48.321Z,71.68
2023-05-02T18:06:19.151Z,72.36
2023-05-02T18:08:49.369Z,72.86
2023-05-02T18:11:21.260Z,73.90
2023-05-02T18:13:51.616Z,75.68
2023-05-02T18:16:22.050Z,75.31
2023-05-02T18:18:51.811Z,76.06
2023-05-02T18:21:28.195Z,76.76
2023-05-02T18:23:57.039Z,76.16
2023-05-02T18:26:25.911Z,75.79
2023-05-02T18:28:55.857Z,76.38
2023-05-02T18:31:24.365Z,76.48
2023-05-02T18:33:54.886Z,76.15
2023-05-02T18:36:28.954Z,76.77
2023-05-02T18:39:00.412Z,78.21
2023-05-02T18:41:29.641Z,78.79
2023-05-02T18:43:58.645Z,78.99
2023-05-02T18:46:30.363Z,77.66
2023-05-02T18:49:00.486Z,76.36
2023-05-02T18:51:30.494Z,76.54
2023-05-02T18:54:00.501Z,77.36
2023-05-02T18:56:30.434Z,79.02
2023-05-02T18:59:00.308Z,78.60
2023-05-02T19:01:30.354Z,81.36
2023-05-02T19:04:01.123Z,83.93
2023-05-02T19:06:31.686Z,85.96
2023-05-02T19:09:02.022Z,86.53
2023-05-02T19:11:32.183Z,86.68
2023-05-02T19:14:03.739Z,88.23
2023-05-02T19:16:36.170Z,86.99
2023-05-02T19:19:06.069Z,86.94
2023-05-02T19:21:35.480Z,76.79
2023-05-02T19:24:05.714Z,71.76
2023-05-02T19:26:35.850Z,71.96
2023-05-02T19:29:05.915Z,70.98
2023-05-02T19:31:35.818Z,71.61
2023-05-02T19:34:06.160Z,70.47
2023-05-02T19:36:36.316Z,71.50
2023-05-02T19:39:05.973Z,73.29
2023-05-02T19:41:36.502Z,74.94
2023-05-02T19:44:06.137Z,76.30
2023-05-02T19:46:36.334Z,75.91
2023-05-02T19:49:06.287Z,76.12
2023-05-02T19:51:36.160Z,76.30
2023-05-02T19:54:06.135Z,77.03
2023-05-02T19:56:36.370Z,78.95
2023-05-02T19:59:06.702Z,79.57
2023-05-02T20:01:36.102Z,80.19
2023-05-02T20:04:06.075Z,80.05
2023-05-02T20:06:36.599Z,80.13
2023-05-02T20:09:06.519Z,79.87
2023-05-02T20:11:36.282Z,79.39
2023-05-02T20:14:06.177Z,79.40
2023-05-02T20:16:36.097Z,79.35
2023-05-02T20:19:06.195Z,78.54
2023-05-02T20:21:36.258Z,79.06
2023-05-02T20:24:07.180Z,79.76
2023-05-02T20:26:37.510Z,79.21
2023-05-02T20:29:09.994Z,79.70
2023-05-02T20:31:38.102Z,79.35
2023-05-02T20:34:08.206Z,80.69
2023-05-02T20:36:36.858Z,80.39
2023-05-02T20:39:07.574Z,78.09
2023-05-02T20:41:36.866Z,77.88
2023-05-02T20:44:04.981Z,79.75
2023-05-02T20:46:33.375Z,80.16
2023-05-02T20:49:02.397Z,78.76
2023-05-02T20:51:30.435Z,79.24
2023-05-02T20:53:59.455Z,79.71
2023-05-02T20:56:27.087Z,80.00
2023-05-02T20:58:56.809Z,81.31
2023-05-02T21:01:27.109Z,80.32
2023-05-02T21:03:57.482Z,81.00
2023-05-02T21:06:27.771Z,81.40
2023-05-02T21:08:58.553Z,81.63
2023-05-02T21:11:29.918Z,80.38
2023-05-02T21:13:59.838Z,79.79
2023-05-02T21:16:29.683Z,80.92
2023-05-02T21:18:59.554Z,81.68
2023-05-02T21:21:29.288Z,82.21
2023-05-02T21:23:59.088Z,81.68
2023-05-02T21:26:29.261Z,82.00
2023-05-02T21:28:59.153Z,81.55
2023-05-02T21:31:29.602Z,84.69
2023-05-02T21:34:00.847Z,83.92
2023-05-02T21:36:30.054Z,84.40
2023-05-02T21:38:59.838Z,81.80
2023-05-02T21:41:29.808Z,80.79
2023-05-02T21:43:59.427Z,82.71
2023-05-02T21:46:29.251Z,82.33
2023-05-02T21:48:59.161Z,82.26
2023-05-02T21:51:28.954Z,81.90
2023-05-02T21:53:58.778Z,82.08
2023-05-02T21:56:28.533Z,82.76
2023-05-02T21:58:58.375Z,82.81
2023-05-02T22:01:28.215Z,83.09
2023-05-02T22:03:58.239Z,82.61
2023-05-02T22:06:28.726Z,81.56
2023-05-02T22:08:56.753Z,82.23
2023-05-02T22:11:25.702Z,83.23
2023-05-02T22:13:53.842Z,83.77
2023-05-02T22:16:22.172Z,83.82
2023-05-02T22:18:50.709Z,85.57
2023-05-02T22:21:19.040Z,85.52
2023-05-02T22:23:47.299Z,86.06
2023-05-02T22:26:15.872Z,86.13
2023-05-02T22:28:44.283Z,86.85
2023-05-02T22:31:12.666Z,88.26
2023-05-02T22:33:42.900Z,89.33
2023-05-02T22:36:12.869Z,92.29
2023-05-02T22:38:40.976Z,91.16
2023-05-02T22:41:10.069Z,91.04
2023-05-02T22:43:37.791Z,88.30
2023-05-02T22:46:06.284Z,87.54
2023-05-02T22:48:34.670Z,88.33
2023-05-02T22:51:03.220Z,88.98
2023-05-02T22:53:31.524Z,89.52
2023-05-02T22:56:01.554Z,89.42
2023-05-02T22:58:31.309Z,90.22
2023-05-02T23:01:02.232Z,90.17
2023-05-02T23:03:32.162Z,90.36
2023-05-02T23:06:02.269Z,90.27
2023-05-02T23:08:31.971Z,89.27
2023-05-02T23:11:01.679Z,89.58
2023-05-02T23:13:31.769Z,90.04
2023-05-02T23:16:01.590Z,89.10
2023-05-02T23:18:31.907Z,90.38
2023-05-02T23:21:01.534Z,89.48
2023-05-02T23:23:31.964Z,88.81
2023-05-02T23:26:01.522Z,91.68
2023-05-02T23:28:31.423Z,90.41
2023-05-02T23:31:02.938Z,89.87
2023-05-02T23:33:32.913Z,89.03
2023-05-02T23:36:04.087Z,89.87
2023-05-02T23:38:36.302Z,88.97
2023-05-02T23:41:05.900Z,90.45
2023-05-02T23:43:36.039Z,90.42
2023-05-02T23:46:06.477Z,89.30
2023-05-02T23:48:36.550Z,90.33
2023-05-02T23:51:06.435Z,89.09
2023-05-02T23:53:36.178Z,89.07
2023-05-02T23:56:06.964Z,91.56
2023-05-02T23:58:36.933Z,91.31
